Time;durP1;ratioP1;P1;durP2;ratioP2;P2;SDS_P1;SDS_P2;PMS_P1;PMS_P2;Temp;Humidity;BMP_temperature;BMP_pressure;BME280_temperature;BME280_humidity;BME280_pressure;Samples;Min_cycle;Max_cycle;Signal;HPM_P1;HPM_P2
2022/06/12 00:00:35;;;;;;;10.85;8.43;;;;;;;16.16;76.21;102181.28;4998640;28;20030;-51
2022/06/12 00:03:03;;;;;;;14.18;9.20;;;;;;;16.06;76.33;102189.22;5000411;28;20105;-52
2022/06/12 00:05:33;;;;;;;9.35;8.07;;;;;;;16.00;76.20;102191.88;4998703;28;20423;-54
2022/06/12 00:07:59;;;;;;;9.60;7.78;;;;;;;15.98;76.12;102202.13;4998897;28;20109;-51
2022/06/12 00:10:24;;;;;;;10.52;8.10;;;;;;;16.00;75.84;102197.28;4998855;28;20105;-51
2022/06/12 00:12:50;;;;;;;9.15;7.53;;;;;;;16.06;75.56;102200.03;4997558;28;20492;-50
2022/06/12 00:15:19;;;;;;;9.82;8.15;;;;;;;16.02;75.69;102199.72;4999596;28;20080;-51
2022/06/12 00:17:45;;;;;;;13.90;8.52;;;;;;;15.98;75.79;102204.81;4998422;28;20026;-54
2022/06/12 00:20:14;;;;;;;11.68;7.75;;;;;;;16.02;75.45;102197.84;5001613;28;20034;-51
2022/06/12 00:22:40;;;;;;;9.05;7.85;;;;;;;15.96;75.50;102201.53;4997030;28;20043;-53
2022/06/12 00:25:09;;;;;;;13.25;8.02;;;;;;;15.90;75.62;102197.13;4999776;28;20127;-50
2022/06/12 00:27:36;;;;;;;12.32;7.95;;;;;;;15.88;75.56;102190.34;4998511;28;20044;-51
2022/06/12 00:30:03;;;;;;;10.55;7.78;;;;;;;15.79;76.16;102186.41;5002063;28;20107;-55
2022/06/12 00:32:30;;;;;;;9.15;8.13;;;;;;;15.70;76.50;102191.41;4997855;28;20036;-52
2022/06/12 00:34:56;;;;;;;12.27;7.85;;;;;;;15.63;76.61;102190.78;4995690;28;20058;-50
2022/06/12 00:37:23;;;;;;;8.68;7.75;;;;;;;15.63;76.72;102194.28;4999192;28;20069;-52
2022/06/12 00:39:51;;;;;;;11.85;8.38;;;;;;;15.56;76.92;102190.91;4997381;28;20033;-52
2022/06/12 00:42:22;;;;;;;11.38;8.68;;;;;;;15.48;77.04;102191.31;4996547;28;20369;-53
2022/06/12 00:44:48;;;;;;;13.38;8.80;;;;;;;15.43;77.15;102192.03;4999209;28;20198;-53
2022/06/12 00:47:15;;;;;;;9.18;8.00;;;;;;;15.34;77.69;102187.31;4996649;28;20517;-52
2022/06/12 00:49:52;;;;;;;10.13;9.02;;;;;;;15.23;79.22;102183.59;4998211;28;20257;-53
2022/06/12 00:52:23;;;;;;;11.70;8.13;;;;;;;15.23;79.25;102183.59;4998225;28;20025;-52
2022/06/12 00:54:54;;;;;;;15.68;8.43;;;;;;;15.22;79.08;102181.13;4993462;28;20448;-53
2022/06/12 00:57:23;;;;;;;12.23;10.00;;;;;;;15.18;79.08;102188.91;4995513;28;20028;-52
2022/06/12 01:00:05;;;;;;;14.23;9.50;;;;;;;15.06;79.73;102190.84;4999260;28;20558;-54
2022/06/12 01:02:33;;;;;;;16.90;9.63;;;;;;;15.04;79.90;102193.78;4998184;28;20531;-53
2022/06/12 01:07:49;;;;;;;11.25;8.70;;;;;;;15.07;79.83;102192.50;4994461;28;20045;-54
2022/06/12 01:10:17;;;;;;;12.75;8.93;;;;;;;15.07;79.83;102196.00;4995940;28;20066;-50
2022/06/12 01:13:10;;;;;;;12.40;9.65;;;;;;;15.01;80.22;102193.47;4997768;28;20280;-51
2022/06/12 01:15:40;;;;;;;11.80;9.32;;;;;;;15.06;79.80;102185.44;4989152;28;20125;-52
2022/06/12 01:18:10;;;;;;;12.27;8.85;;;;;;;15.03;79.75;102186.75;4996539;28;20033;-51
2022/06/12 01:20:44;;;;;;;9.40;8.50;;;;;;;14.99;79.50;102190.19;4998863;28;20034;-52
2022/06/12 01:23:44;;;;;;;10.15;7.97;;;;;;;14.95;79.88;102189.88;4995410;28;20030;-54
2022/06/12 01:26:36;;;;;;;10.60;8.65;;;;;;;15.06;79.54;102194.38;4999144;28;20030;-54
2022/06/12 01:29:26;;;;;;;9.95;8.43;;;;;;;15.00;80.11;102194.53;4999920;28;20494;-51
2022/06/12 01:32:08;;;;;;;13.30;8.75;;;;;;;15.02;79.88;102195.09;4998431;28;20172;-51
2022/06/12 01:34:56;;;;;;;10.32;8.18;;;;;;;15.01;79.77;102201.56;4995575;28;20473;-51
2022/06/12 01:37:54;;;;;;;10.68;9.57;;;;;;;14.98;80.26;102197.47;4993438;28;20506;-53
2022/06/12 01:40:44;;;;;;;9.27;8.32;;;;;;;14.99;79.81;102195.59;4959915;28;20092;-51
2022/06/12 01:43:45;;;;;;;9.65;8.60;;;;;;;14.94;79.49;102193.63;4996757;28;20026;-50
2022/06/12 01:46:19;;;;;;;12.38;8.70;;;;;;;14.85;79.71;102183.44;4991520;28;20109;-52
2022/06/12 01:48:56;;;;;;;9.65;8.65;;;;;;;14.72;79.91;102168.38;4997136;28;20030;-55
2022/06/12 01:51:28;;;;;;;21.45;8.45;;;;;;;14.65;80.54;102173.91;4993196;28;20026;-52
2022/06/12 01:53:56;;;;;;;16.65;9.18;;;;;;;14.66;80.74;102174.72;4992934;28;20027;-51
2022/06/12 01:56:37;;;;;;;11.45;9.60;;;;;;;14.75;80.33;102190.31;4997060;28;20229;-54
2022/06/12 01:59:30;;;;;;;11.98;9.23;;;;;;;14.80;80.22;102185.00;4995745;28;20162;-53
2022/06/12 02:02:08;;;;;;;11.93;9.65;;;;;;;14.87;79.91;102186.72;4994573;28;20491;-52
2022/06/12 02:04:53;;;;;;;11.85;9.55;;;;;;;14.87;79.46;102184.03;4995920;28;20026;-55
2022/06/12 02:07:21;;;;;;;15.15;9.02;;;;;;;14.69;79.44;102174.25;4991813;28;20510;-52
2022/06/12 02:09:59;;;;;;;12.57;8.98;;;;;;;14.55;79.61;102171.03;4993313;28;20042;-50
2022/06/12 02:15:25;;;;;;;13.40;8.70;;;;;;;14.45;80.44;102185.13;4993504;28;20053;-53
2022/06/12 02:17:58;;;;;;;11.32;8.73;;;;;;;14.53;79.99;102186.59;4995086;28;20022;-50
2022/06/12 02:20:30;;;;;;;12.57;8.60;;;;;;;14.64;80.25;102177.66;4998548;28;20117;-51
2022/06/12 02:22:58;;;;;;;12.52;9.02;;;;;;;14.62;79.59;102177.09;4991548;28;20258;-53
2022/06/12 02:25:30;;;;;;;16.95;9.50;;;;;;;14.51;79.04;102180.63;4992925;28;20491;-51
2022/06/12 02:28:04;;;;;;;13.00;9.20;;;;;;;14.44;80.06;102177.28;4995994;28;20033;-50
2022/06/12 02:30:34;;;;;;;9.60;8.60;;;;;;;14.52;79.81;102190.38;4996920;28;20087;-50
2022/06/12 02:33:06;;;;;;;13.10;10.27;;;;;;;14.43;79.35;102175.59;4993858;28;20080;-52
2022/06/12 02:36:23;;;;;;;11.50;9.52;;;;;;;14.27;80.42;102177.16;4992193;28;20110;-51
2022/06/12 02:38:56;;;;;;;10.68;9.10;;;;;;;14.27;80.28;102168.25;4966468;28;20041;-52
2022/06/12 02:41:46;;;;;;;12.93;10.07;;;;;;;14.20;80.55;102171.91;4995552;28;20030;-50
2022/06/12 02:44:19;;;;;;;14.75;11.00;;;;;;;14.12;81.46;102169.56;4997408;28;20028;-53
2022/06/12 02:46:55;;;;;;;12.90;10.15;;;;;;;13.96;81.66;102164.91;4992659;28;20034;-53
2022/06/12 02:49:22;;;;;;;15.63;10.63;;;;;;;13.80;82.54;102168.31;4994529;28;20061;-52
2022/06/12 02:52:02;;;;;;;17.52;10.23;;;;;;;13.84;82.10;102162.22;4993837;28;20030;-51
2022/06/12 02:54:37;;;;;;;11.68;10.35;;;;;;;13.89;82.20;102158.81;4996934;28;20480;-51
2022/06/12 02:57:18;;;;;;;15.15;10.88;;;;;;;13.83;82.06;102149.00;4993169;28;20401;-50
2022/06/12 03:00:13;;;;;;;14.02;10.70;;;;;;;13.71;82.87;102158.94;4992941;28;20018;-50
2022/06/12 03:02:57;;;;;;;14.52;9.55;;;;;;;13.81;82.51;102161.84;4998844;28;20026;-54
2022/06/12 03:05:35;;;;;;;11.68;9.60;;;;;;;13.90;81.89;102163.16;4994571;28;20515;-54
2022/06/12 03:08:14;;;;;;;11.95;9.60;;;;;;;13.99;81.71;102169.00;4993222;28;20151;-53
2022/06/12 03:11:19;;;;;;;13.55;10.52;;;;;;;13.82;82.75;102150.03;4995001;28;20069;-52
2022/06/12 03:13:47;;;;;;;13.43;9.90;;;;;;;13.83;83.23;102149.81;4995147;28;20037;-50
2022/06/12 03:16:16;;;;;;;13.48;10.48;;;;;;;13.91;82.82;102151.31;5002205;28;20033;-51
2022/06/12 03:18:55;;;;;;;12.25;10.10;;;;;;;13.90;81.84;102155.91;5002214;28;20033;-53
2022/06/12 03:21:47;;;;;;;15.23;9.98;;;;;;;13.83;81.68;102149.00;5002356;28;20030;-50
2022/06/12 03:24:17;;;;;;;12.80;9.60;;;;;;;13.83;81.71;102151.69;5002258;28;20029;-49
2022/06/12 03:27:07;;;;;;;11.65;9.75;;;;;;;13.83;81.49;102154.38;4997727;28;20026;-52
2022/06/12 03:29:41;;;;;;;13.75;9.88;;;;;;;13.75;81.74;102149.34;4998079;28;20030;-49
2022/06/12 03:32:29;;;;;;;13.90;10.48;;;;;;;13.67;82.70;102163.19;4998299;28;20026;-53
2022/06/12 03:35:31;;;;;;;17.17;10.63;;;;;;;13.65;83.68;102167.97;4996776;28;20034;-50
2022/06/12 03:37:59;;;;;;;15.40;10.38;;;;;;;13.82;83.40;102175.13;4999067;28;20034;-54
2022/06/12 03:40:54;;;;;;;20.02;10.80;;;;;;;13.90;83.82;102165.84;4993193;28;20186;-50
2022/06/12 03:43:25;;;;;;;12.80;10.13;;;;;;;13.97;83.76;102158.44;5002862;28;20053;-52
2022/06/12 03:46:01;;;;;;;14.70;10.57;;;;;;;13.99;83.71;102153.63;4996630;28;20140;-51
2022/06/12 03:49:07;;;;;;;14.45;11.85;;;;;;;13.98;83.75;102151.19;5004671;28;20480;-50
2022/06/12 03:51:44;;;;;;;20.15;10.77;;;;;;;13.94;83.77;102156.22;4998723;28;20446;-50
2022/06/12 03:54:28;;;;;;;16.77;11.23;;;;;;;13.93;83.82;102160.00;4998942;28;20030;-50
2022/06/12 04:00:10;;;;;;;16.02;12.07;;;;;;;14.03;84.37;102162.91;4997429;28;20072;-50
2022/06/12 04:02:37;;;;;;;16.17;12.57;;;;;;;14.09;84.97;102159.25;5001211;28;20117;-50
2022/06/12 04:05:07;;;;;;;17.00;13.75;;;;;;;14.13;85.71;102155.03;4996099;28;20057;-50
2022/06/12 04:07:42;;;;;;;17.00;13.48;;;;;;;14.24;86.20;102149.88;4995790;28;20484;-50
2022/06/12 04:10:08;;;;;;;19.10;13.93;;;;;;;14.35;86.52;102147.13;4997792;28;20062;-53
2022/06/12 04:12:34;;;;;;;17.77;13.07;;;;;;;14.46;86.49;102150.88;5004222;28;20030;-50
2022/06/12 04:15:06;;;;;;;20.20;13.68;;;;;;;14.57;86.43;102152.72;5000411;28;20108;-52
2022/06/12 04:17:34;;;;;;;17.73;13.73;;;;;;;14.69;86.32;102155.38;5000889;28;20022;-50
2022/06/12 04:20:00;;;;;;;18.45;13.70;;;;;;;14.87;85.26;102165.94;4996493;28;20034;-50
2022/06/12 04:22:46;;;;;;;22.48;12.45;;;;;;;15.02;84.13;102171.63;4995965;28;20443;-50
2022/06/12 04:25:32;;;;;;;17.60;13.10;;;;;;;15.11;83.70;102175.59;4999978;28;20046;-50
2022/06/12 04:27:57;;;;;;;19.85;13.70;;;;;;;15.19;84.77;102176.22;5003364;28;20033;-52
2022/06/12 04:30:37;;;;;;;16.08;13.10;;;;;;;15.25;85.22;102181.47;5003284;28;20512;-50
2022/06/12 04:33:19;;;;;;;18.37;14.20;;;;;;;15.32;85.34;102184.84;4998122;28;20077;-51
2022/06/12 04:35:52;;;;;;;16.92;13.57;;;;;;;15.41;84.71;102169.84;5002063;28;20487;-54
2022/06/12 04:38:19;;;;;;;18.95;13.57;;;;;;;15.52;84.25;102170.03;4999485;28;20134;-52
2022/06/12 04:40:44;;;;;;;19.23;13.80;;;;;;;15.64;83.99;102165.41;4994882;28;20026;-53
2022/06/12 04:43:11;;;;;;;17.33;13.65;;;;;;;15.74;83.96;102164.72;5000923;28;20100;-52
2022/06/12 04:45:38;;;;;;;18.50;14.35;;;;;;;15.83;84.47;102158.66;4993549;28;20030;-54
2022/06/12 04:48:06;;;;;;;15.88;13.18;;;;;;;15.95;83.66;102150.41;4999045;28;20786;-50
2022/06/12 04:50:32;;;;;;;16.70;12.70;;;;;;;16.07;83.12;102158.41;4995073;28;20113;-50
2022/06/12 04:52:57;;;;;;;15.88;12.43;;;;;;;16.12;82.89;102162.00;5000212;28;20121;-52
2022/06/12 04:55:23;;;;;;;18.20;14.20;;;;;;;16.13;83.52;102154.72;4995508;28;20041;-50
2022/06/12 04:57:48;;;;;;;18.83;13.57;;;;;;;16.18;82.83;102154.78;5000190;28;20116;-52
2022/06/12 05:00:16;;;;;;;18.85;13.30;;;;;;;16.28;83.37;102157.59;4994792;28;20407;-50
2022/06/12 05:02:42;;;;;;;18.23;12.88;;;;;;;16.41;82.82;102159.94;5002268;28;20059;-55
2022/06/12 05:05:08;;;;;;;17.13;12.73;;;;;;;16.55;82.53;102158.47;4992004;28;20058;-51
2022/06/12 05:07:33;;;;;;;16.70;13.02;;;;;;;16.67;82.20;102152.94;4999690;28;20057;-50
2022/06/12 05:09:59;;;;;;;19.45;13.90;;;;;;;16.82;82.22;102155.00;4994721;28;20065;-52
2022/06/12 05:12:24;;;;;;;16.83;13.07;;;;;;;16.97;82.22;102148.91;4996344;28;20037;-49
2022/06/12 05:14:50;;;;;;;18.88;13.40;;;;;;;17.13;81.36;102145.28;4996279;28;20030;-50
2022/06/12 05:17:17;;;;;;;16.20;12.70;;;;;;;17.26;80.76;102147.56;4996817;28;20026;-51
2022/06/12 05:19:44;;;;;;;16.40;12.20;;;;;;;17.41;80.57;102149.53;4997313;28;20040;-52
2022/06/12 05:22:12;;;;;;;17.20;12.90;;;;;;;17.51;79.89;102146.91;4993985;28;20120;-51
2022/06/12 05:24:39;;;;;;;15.20;10.45;;;;;;;17.59;79.52;102149.13;4993987;28;20117;-51
2022/06/12 05:27:08;;;;;;;15.90;10.95;;;;;;;17.62;79.08;102151.34;4997463;28;20156;-50
2022/06/12 05:29:37;;;;;;;15.55;9.88;;;;;;;17.68;78.98;102158.44;4998254;28;20018;-50
2022/06/12 05:32:03;;;;;;;15.75;9.40;;;;;;;17.72;78.39;102148.72;4997627;28;20601;-50
2022/06/12 05:34:30;;;;;;;15.68;10.05;;;;;;;17.76;78.51;102157.94;4994681;28;20029;-50
2022/06/12 05:36:57;;;;;;;14.20;9.77;;;;;;;17.80;78.33;102153.66;4991021;28;20511;-50
2022/06/12 05:39:24;;;;;;;16.35;10.43;;;;;;;17.86;78.07;102159.09;4995584;28;20451;-53
2022/06/12 05:41:51;;;;;;;13.02;9.23;;;;;;;17.86;77.40;102154.50;4993600;28;20037;-51
2022/06/12 05:44:17;;;;;;;14.63;9.80;;;;;;;17.87;77.20;102156.13;4995292;28;20083;-52
2022/06/12 05:46:43;;;;;;;12.60;9.57;;;;;;;17.87;76.91;102160.72;4998951;28;20022;-53
2022/06/12 05:49:09;;;;;;;10.85;8.90;;;;;;;17.86;76.75;102159.09;4996736;28;20631;-54
2022/06/12 05:51:35;;;;;;;12.57;9.80;;;;;;;17.84;76.71;102161.25;4995419;28;20091;-51
2022/06/12 05:54:01;;;;;;;14.77;11.40;;;;;;;17.80;77.74;102167.22;4993774;28;20112;-51
2022/06/12 05:56:28;;;;;;;16.83;10.75;;;;;;;17.84;78.30;102172.09;4994291;28;20508;-51
2022/06/12 05:58:55;;;;;;;14.40;10.95;;;;;;;17.85;78.67;102176.44;4993641;28;20026;-54
2022/06/12 06:01:23;;;;;;;15.55;12.50;;;;;;;17.86;79.34;102175.38;4993144;28;20108;-51
2022/06/12 06:03:48;;;;;;;16.95;12.15;;;;;;;17.74;81.29;102176.38;4999487;28;20076;-53
2022/06/12 06:06:18;;;;;;;15.10;11.50;;;;;;;17.68;81.49;102179.31;5001915;28;20033;-51
2022/06/12 06:08:44;;;;;;;12.68;9.57;;;;;;;17.68;80.99;102182.84;4995128;28;20194;-50
2022/06/12 06:11:10;;;;;;;15.05;9.70;;;;;;;17.66;79.92;102171.41;4994426;28;20033;-50
2022/06/12 06:13:35;;;;;;;11.38;9.00;;;;;;;17.74;79.33;102173.66;4992742;28;20030;-52
2022/06/12 06:16:01;;;;;;;12.35;9.88;;;;;;;17.78;78.84;102166.66;4994950;28;20053;-52
2022/06/12 06:18:27;;;;;;;13.32;9.73;;;;;;;17.80;78.72;102175.34;4993404;28;20065;-54
2022/06/12 06:20:53;;;;;;;15.95;9.57;;;;;;;17.80;78.98;102171.81;4995614;28;20481;-53
2022/06/12 06:23:19;;;;;;;14.13;9.68;;;;;;;17.81;79.07;102163.41;4993168;28;20030;-51
2022/06/12 06:25:44;;;;;;;14.50;10.38;;;;;;;17.83;79.93;102157.72;4999504;28;20053;-52
2022/06/12 06:28:13;;;;;;;12.30;10.43;;;;;;;17.83;80.50;102152.31;4995171;28;20369;-53
2022/06/12 06:30:39;;;;;;;12.32;9.70;;;;;;;17.91;79.85;102157.22;5001905;28;20030;-53
2022/06/12 06:33:05;;;;;;;13.93;9.52;;;;;;;17.90;79.34;102152.06;4997329;28;20045;-50
2022/06/12 06:35:31;;;;;;;10.50;8.70;;;;;;;17.92;78.72;102160.75;4998480;28;20022;-53
2022/06/12 06:37:57;;;;;;;14.05;8.70;;;;;;;17.98;78.41;102146.97;4998616;28;20091;-52
2022/06/12 06:40:25;;;;;;;10.60;8.77;;;;;;;18.03;77.49;102165.16;4997141;28;20424;-51
2022/06/12 06:42:50;;;;;;;14.50;8.52;;;;;;;18.08;77.05;102155.16;4997995;28;20037;-53
2022/06/12 06:48:02;;;;;;;11.30;8.15;;;;;;;18.17;76.19;102155.47;4998833;28;20091;-50
2022/06/12 06:50:29;;;;;;;11.18;8.93;;;;;;;18.22;76.00;102157.38;4993388;28;20564;-53
2022/06/12 06:52:55;;;;;;;14.68;8.60;;;;;;;18.29;75.87;102156.03;4995224;28;20407;-54
2022/06/12 06:55:20;;;;;;;14.10;8.82;;;;;;;18.35;75.75;102157.72;4999518;28;20032;-51
2022/06/12 06:57:48;;;;;;;11.65;7.93;;;;;;;18.48;75.29;102152.84;5001908;28;20030;-52
2022/06/12 07:00:17;;;;;;;13.10;8.32;;;;;;;18.57;74.33;102157.50;5002567;28;20022;-54
2022/06/12 07:02:43;;;;;;;12.18;8.15;;;;;;;18.65;74.16;102164.31;5000760;28;20480;-53
2022/06/12 07:05:10;;;;;;;13.15;7.45;;;;;;;18.71;73.45;102155.94;5004095;28;20159;-49
2022/06/12 07:07:36;;;;;;;11.73;7.28;;;;;;;18.75;72.91;102158.94;4999011;28;20034;-53
2022/06/12 07:10:04;;;;;;;11.50;6.97;;;;;;;18.87;72.22;102164.94;5004772;28;20522;-52
2022/06/12 07:12:31;;;;;;;10.05;6.80;;;;;;;18.92;72.19;102167.66;5000173;28;20329;-50
2022/06/12 07:14:56;;;;;;;10.70;6.93;;;;;;;18.92;72.11;102156.78;5002888;28;20022;-51
2022/06/12 07:17:22;;;;;;;11.57;6.90;;;;;;;18.96;71.99;102155.16;5001296;28;20025;-52
2022/06/12 07:19:47;;;;;;;11.82;7.13;;;;;;;18.98;71.63;102157.59;5002310;28;20249;-50
2022/06/12 07:22:13;;;;;;;11.55;7.70;;;;;;;18.98;71.35;102153.00;4999294;28;20091;-52
2022/06/12 07:24:38;;;;;;;11.00;6.70;;;;;;;18.97;71.38;102155.97;5003199;28;20115;-50
2022/06/12 07:27:05;;;;;;;8.55;7.50;;;;;;;18.94;71.74;102154.63;5000974;28;20044;-50
2022/06/12 07:29:31;;;;;;;9.00;7.38;;;;;;;18.89;72.22;102159.25;4997600;28;20269;-50
2022/06/12 07:31:56;;;;;;;12.70;7.22;;;;;;;18.85;72.55;102148.09;4997820;28;20026;-51
2022/06/12 07:34:22;;;;;;;11.68;8.20;;;;;;;18.80;73.51;102153.50;4996555;28;20092;-50
2022/06/12 07:36:50;;;;;;;13.30;9.07;;;;;;;18.81;73.59;102147.00;5000266;28;20408;-50
2022/06/12 07:39:21;;;;;;;12.13;8.98;;;;;;;18.73;74.37;102147.53;4997799;28;20042;-51
2022/06/12 07:41:48;;;;;;;11.85;8.32;;;;;;;18.74;74.59;102157.31;5000896;28;20030;-51
2022/06/12 07:44:17;;;;;;;11.85;8.95;;;;;;;18.72;74.88;102162.19;4997277;28;20233;-52
2022/06/12 07:46:43;;;;;;;9.82;8.82;;;;;;;18.71;75.50;102166.00;4997946;28;20022;-50
2022/06/12 07:49:09;;;;;;;14.00;9.07;;;;;;;18.71;75.37;102166.00;4996031;28;20084;-51
2022/06/12 07:51:35;;;;;;;13.55;9.38;;;;;;;18.69;75.33;102163.56;4998181;28;20033;-52
2022/06/12 07:54:00;;;;;;;13.80;8.65;;;;;;;18.66;75.87;102168.69;4998613;28;20033;-50
2022/06/12 07:56:27;;;;;;;14.80;8.85;;;;;;;18.61;75.94;102163.22;4997458;28;20088;-50
2022/06/12 07:58:53;;;;;;;10.40;8.50;;;;;;;18.56;76.45;102152.34;4996256;28;20483;-50
2022/06/12 08:01:23;;;;;;;10.75;9.38;;;;;;;18.56;76.82;102155.88;4995323;28;20037;-52
2022/06/12 08:03:49;;;;;;;12.23;9.57;;;;;;;18.57;76.84;102162.13;5000271;28;20033;-51
2022/06/12 08:06:14;;;;;;;14.00;10.05;;;;;;;18.59;76.90;102154.53;5001024;28;20033;-52
2022/06/12 08:08:40;;;;;;;17.50;11.63;;;;;;;18.54;78.05;102141.75;5000358;28;20061;-52
2022/06/12 08:11:06;;;;;;;18.25;10.68;;;;;;;18.54;79.12;102139.03;5000404;28;20022;-52
2022/06/12 08:13:33;;;;;;;14.98;11.20;;;;;;;18.55;79.36;102134.44;4996961;28;20593;-54
2022/06/12 08:16:00;;;;;;;16.63;11.07;;;;;;;18.51;79.91;102125.19;5000879;28;20121;-55
2022/06/12 08:18:26;;;;;;;19.73;11.40;;;;;;;18.51;80.00;102130.63;4996759;28;20029;-53
2022/06/12 08:20:59;;;;;;;14.63;9.95;;;;;;;18.49;80.74;102130.06;4996666;28;20030;-53
2022/06/12 08:23:33;;;;;;;12.93;10.63;;;;;;;18.42;81.59;102122.19;4996919;28;20064;-54
2022/06/12 08:26:25;;;;;;;10.85;8.95;;;;;;;18.44;81.37;102122.72;4993771;28;20029;-53
2022/06/12 08:28:53;;;;;;;13.52;10.00;;;;;;;18.45;81.62;102118.09;4997779;28;20117;-51
2022/06/12 08:31:24;;;;;;;13.05;10.05;;;;;;;18.48;80.93;102112.94;4998471;28;20042;-53
2022/06/12 08:33:52;;;;;;;12.30;8.48;;;;;;;18.45;80.33;102118.09;4997949;28;20027;-53
2022/06/12 08:36:20;;;;;;;11.20;9.40;;;;;;;18.38;80.63;102107.53;4995587;28;20149;-53
2022/06/12 08:38:47;;;;;;;16.45;10.95;;;;;;;18.39;81.61;102114.56;4995938;28;20480;-51
2022/06/12 08:41:22;;;;;;;12.60;10.45;;;;;;;18.41;82.47;102117.84;5000026;28;20030;-52
2022/06/12 08:44:05;;;;;;;14.10;10.93;;;;;;;18.40;83.60;102127.88;4998877;28;20026;-50
2022/06/12 08:46:55;;;;;;;16.35;10.13;;;;;;;18.48;84.08;102123.81;4995999;28;20463;-50
2022/06/12 08:49:29;;;;;;;13.95;10.23;;;;;;;18.57;83.12;102121.41;4998277;28;20411;-51
2022/06/12 08:52:13;;;;;;;12.43;11.02;;;;;;;18.64;83.03;102111.13;4996682;28;20068;-51
2022/06/12 08:54:48;;;;;;;16.73;10.27;;;;;;;18.72;82.37;102102.47;4997667;28;20045;-50
2022/06/12 08:57:25;;;;;;;12.02;10.25;;;;;;;18.86;82.72;102090.00;4991667;28;20092;-52
2022/06/12 09:00:02;;;;;;;13.30;8.65;;;;;;;18.95;81.93;102091.06;4997523;28;20650;-50
2022/06/12 09:02:32;;;;;;;9.15;7.10;;;;;;;18.97;79.55;102097.03;4995543;28;20030;-50
2022/06/12 09:05:00;;;;;;;10.73;7.07;;;;;;;19.05;78.40;102098.41;4996481;28;20448;-50
2022/06/12 09:07:50;;;;;;;10.35;7.28;;;;;;;19.21;79.22;102110.06;4995431;28;20396;-50
2022/06/12 09:10:29;;;;;;;10.35;7.80;;;;;;;19.30;77.67;102098.38;4994954;28;20389;-50
2022/06/12 09:13:25;;;;;;;10.07;6.78;;;;;;;19.37;76.54;102091.84;4995297;28;20034;-49
2022/06/12 09:16:35;;;;;;;10.30;7.10;;;;;;;19.43;76.24;102097.00;4991087;28;20187;-50
2022/06/12 09:19:14;;;;;;;10.13;6.53;;;;;;;19.58;76.05;102094.28;4987522;28;20034;-52
2022/06/12 09:22:01;;;;;;;6.97;5.93;;;;;;;19.70;75.39;102095.88;4996559;28;20153;-50
2022/06/12 09:24:52;;;;;;;8.02;5.72;;;;;;;19.75;73.88;102093.13;4994784;28;20026;-49
2022/06/12 09:27:28;;;;;;;9.07;5.30;;;;;;;19.83;73.72;102082.50;4994989;28;20043;-52
2022/06/12 09:30:03;;;;;;;6.85;4.75;;;;;;;19.95;71.31;102082.22;4993763;28;20388;-50
2022/06/12 09:32:48;;;;;;;6.30;4.32;;;;;;;20.12;70.45;102085.41;4990306;28;20527;-51
2022/06/12 09:35:40;;;;;;;10.00;4.90;;;;;;;20.21;70.10;102083.69;4993177;28;20040;-50
2022/06/12 09:38:19;;;;;;;7.60;4.53;;;;;;;20.35;70.04;102083.91;4993828;28;20053;-51
2022/06/12 09:41:02;;;;;;;6.93;4.68;;;;;;;20.50;68.81;102081.13;4995754;28;20815;-52
2022/06/12 09:43:31;;;;;;;7.50;4.38;;;;;;;20.61;68.18;102072.88;4993696;28;20487;-51
2022/06/12 09:46:14;;;;;;;8.15;4.65;;;;;;;20.60;67.41;102072.06;4992750;28;20774;-53
2022/06/12 09:48:53;;;;;;;8.93;4.97;;;;;;;20.64;67.21;102066.84;4993505;28;20041;-49
2022/06/12 09:51:41;;;;;;;4.90;4.28;;;;;;;20.63;67.84;102065.22;4990644;28;20045;-50
2022/06/12 09:54:21;;;;;;;8.65;4.63;;;;;;;20.64;67.80;102058.69;4996661;28;20036;-52
2022/06/12 09:56:50;;;;;;;6.95;5.25;;;;;;;20.77;68.21;102060.75;4993167;28;20636;-48
2022/06/12 09:59:34;;;;;;;6.65;4.57;;;;;;;20.83;68.33;102056.09;4994133;28;20509;-48
2022/06/12 10:02:11;;;;;;;6.00;4.78;;;;;;;20.93;68.19;102053.28;4993479;28;20403;-49
2022/06/12 10:04:56;;;;;;;8.20;4.57;;;;;;;20.97;67.97;102046.16;4991759;28;20152;-50
2022/06/12 10:07:30;;;;;;;6.50;5.03;;;;;;;21.02;67.50;102041.50;4989850;28;20038;-49
2022/06/12 10:10:33;;;;;;;8.60;4.38;;;;;;;21.17;67.69;102042.41;4991491;28;20026;-48
2022/06/12 10:13:07;;;;;;;7.20;4.85;;;;;;;21.30;66.87;102039.84;4993767;28;20037;-52
2022/06/12 10:15:40;;;;;;;6.60;5.10;;;;;;;21.51;67.11;102042.34;4994697;28;20140;-52
2022/06/12 10:18:14;;;;;;;7.28;5.68;;;;;;;21.62;66.39;102038.41;4992775;28;20618;-50
2022/06/12 10:20:45;;;;;;;7.00;4.95;;;;;;;21.77;66.12;102026.50;4995236;28;20042;-50
2022/06/12 10:23:11;;;;;;;6.93;4.68;;;;;;;21.82;65.48;102019.06;4992361;28;20030;-52
2022/06/12 10:25:41;;;;;;;7.60;4.20;;;;;;;21.99;64.13;102016.66;4992594;28;20048;-49
2022/06/12 10:28:26;;;;;;;8.07;4.93;;;;;;;22.20;62.37;102010.94;4994008;28;20518;-50
2022/06/12 10:31:04;;;;;;;6.88;4.53;;;;;;;22.28;61.39;102015.75;5000422;28;20025;-50
2022/06/12 10:33:42;;;;;;;7.70;4.18;;;;;;;22.45;61.30;102007.81;4993846;28;20669;-50
2022/06/12 10:36:29;;;;;;;8.90;5.60;;;;;;;22.59;59.84;102013.31;4995484;28;20690;-47
2022/06/12 10:39:10;;;;;;;6.57;4.50;;;;;;;22.66;58.83;102011.03;4993047;28;20105;-48
2022/06/12 10:41:43;;;;;;;8.32;5.75;;;;;;;22.83;57.52;102013.22;4994077;28;20041;-46
2022/06/12 10:44:35;;;;;;;12.27;4.20;;;;;;;22.87;57.65;101997.84;4999641;28;20026;-47
2022/06/12 10:47:10;;;;;;;5.78;3.95;;;;;;;22.85;56.67;102002.81;4996327;28;20392;-49
2022/06/12 10:49:36;;;;;;;7.40;3.80;;;;;;;22.90;57.89;101992.59;4995347;28;20033;-48
2022/06/12 10:52:15;;;;;;;4.95;3.40;;;;;;;23.06;57.51;101997.78;4994096;28;20042;-47
2022/06/12 10:54:40;;;;;;;4.65;3.50;;;;;;;23.17;56.22;101991.03;4990943;28;20112;-46
2022/06/12 10:57:43;;;;;;;8.70;5.97;;;;;;;23.29;53.79;101987.75;4991038;28;20034;-47
2022/06/12 11:00:15;;;;;;;6.90;4.80;;;;;;;23.46;54.15;101987.97;4989752;28;20042;-47
2022/06/12 11:02:59;;;;;;;12.38;5.93;;;;;;;23.50;51.26;101988.97;4994257;28;20503;-47
2022/06/12 11:05:32;;;;;;;13.60;7.78;;;;;;;23.52;51.14;101982.09;4988441;28;20037;-47
2022/06/12 11:08:08;;;;;;;8.10;4.82;;;;;;;23.69;52.47;101986.94;4994404;28;20034;-46
2022/06/12 11:10:33;;;;;;;5.97;3.25;;;;;;;23.84;53.03;101983.06;4990880;28;20566;-47
2022/06/12 11:13:04;;;;;;;3.28;2.28;;;;;;;23.87;51.26;101984.38;4993630;28;20113;-47
2022/06/12 11:15:34;;;;;;;3.75;2.13;;;;;;;23.72;49.24;101983.63;4990980;28;20033;-48
2022/06/12 11:18:09;;;;;;;4.07;2.25;;;;;;;23.56;47.50;101992.44;4990292;28;20034;-46
2022/06/12 11:20:37;;;;;;;8.38;2.30;;;;;;;23.41;46.56;101996.28;4992444;28;20030;-48
2022/06/12 11:23:26;;;;;;;5.68;1.80;;;;;;;23.31;46.21;101980.88;4991353;28;20033;-47
2022/06/12 11:26:07;;;;;;;7.13;2.33;;;;;;;23.28;46.09;101980.69;4993371;28;20052;-47
2022/06/12 11:28:58;;;;;;;6.68;2.20;;;;;;;23.36;47.01;101980.78;4988586;28;20049;-46
2022/06/12 11:31:35;;;;;;;7.75;2.72;;;;;;;23.42;47.11;101976.84;4994513;28;20787;-47
2022/06/12 11:34:39;;;;;;;4.57;2.10;;;;;;;23.31;46.43;101969.13;4998902;28;20547;-47
2022/06/12 11:37:14;;;;;;;6.22;2.03;;;;;;;23.39;47.33;101955.56;4943655;28;20047;-47
2022/06/12 11:39:58;;;;;;;3.90;2.20;;;;;;;23.26;46.94;101961.03;4995945;28;20033;-47
2022/06/12 11:42:40;;;;;;;2.72;1.85;;;;;;;23.34;47.41;101957.56;4994771;28;20079;-47
2022/06/12 11:45:18;;;;;;;4.63;1.90;;;;;;;23.43;47.28;101950.28;4994884;28;20033;-48
2022/06/12 11:48:07;;;;;;;3.88;1.95;;;;;;;23.32;46.16;101949.69;4996446;28;20062;-47
2022/06/12 11:50:47;;;;;;;4.85;2.00;;;;;;;23.38;45.40;101955.88;4993778;28;21766;-47
2022/06/12 11:53:31;;;;;;;5.75;1.92;;;;;;;23.54;44.96;101954.44;4994667;28;20018;-47
2022/06/12 11:56:04;;;;;;;8.70;2.73;;;;;;;23.59;45.39;101957.09;4999473;28;20042;-47
2022/06/12 11:58:49;;;;;;;4.30;2.22;;;;;;;23.71;45.51;101957.38;4997356;28;20064;-47